sensor_id;sensor_type;location;lat;lon;timestamp;pressure;altitude;pressure_sealevel;temperature
69857;BMP280;57147;53.582;10.112;2022-12-07T00:04:42;100977.38;;;2.22
69857;BMP280;57147;53.582;10.112;2022-12-07T00:09:43;100970.16;;;2.29
69857;BMP280;57147;53.582;10.112;2022-12-07T00:14:43;100952.06;;;2.39
69857;BMP280;57147;53.582;10.112;2022-12-07T00:19:47;100950.91;;;2.35
69857;BMP280;57147;53.582;10.112;2022-12-07T00:24:47;100936.81;;;2.36
69857;BMP280;57147;53.582;10.112;2022-12-07T00:29:48;100933.72;;;2.39
69857;BMP280;57147;53.582;10.112;2022-12-07T00:34:51;100939.81;;;2.51
69857;BMP280;57147;53.582;10.112;2022-12-07T00:39:51;100932.47;;;2.53
69857;BMP280;57147;53.582;10.112;2022-12-07T00:44:52;100924.28;;;2.62
69857;BMP280;57147;53.582;10.112;2022-12-07T00:49:55;100900.81;;;2.43
69857;BMP280;57147;53.582;10.112;2022-12-07T00:54:55;100916.66;;;2.60
69857;BMP280;57147;53.582;10.112;2022-12-07T00:59:56;100903.56;;;2.48
69857;BMP280;57147;53.582;10.112;2022-12-07T01:04:59;100880.66;;;2.44
69857;BMP280;57147;53.582;10.112;2022-12-07T01:10:00;100899.69;;;2.63
69857;BMP280;57147;53.582;10.112;2022-12-07T01:15:00;100893.97;;;2.66
69857;BMP280;57147;53.582;10.112;2022-12-07T01:20:05;100892.50;;;2.70
69857;BMP280;57147;53.582;10.112;2022-12-07T01:25:07;100886.91;;;2.54
69857;BMP280;57147;53.582;10.112;2022-12-07T01:30:11;100879.63;;;2.57
69857;BMP280;57147;53.582;10.112;2022-12-07T01:35:14;100883.25;;;2.56
69857;BMP280;57147;53.582;10.112;2022-12-07T01:40:15;100889.44;;;2.26
69857;BMP280;57147;53.582;10.112;2022-12-07T01:45:37;100879.59;;;2.33
69857;BMP280;57147;53.582;10.112;2022-12-07T01:50:42;100842.03;;;2.16
69857;BMP280;57147;53.582;10.112;2022-12-07T01:55:46;100875.19;;;2.22
69857;BMP280;57147;53.582;10.112;2022-12-07T02:00:48;100873.94;;;2.13
69857;BMP280;57147;53.582;10.112;2022-12-07T02:05:52;100865.94;;;2.08
69857;BMP280;57147;53.582;10.112;2022-12-07T02:10:53;100847.59;;;1.96
69857;BMP280;57147;53.582;10.112;2022-12-07T02:16:08;100853.50;;;1.92
69857;BMP280;57147;53.582;10.112;2022-12-07T02:21:17;100853.91;;;1.77
69857;BMP280;57147;53.582;10.112;2022-12-07T02:32:07;100853.38;;;1.87
69857;BMP280;57147;53.582;10.112;2022-12-07T02:37:15;100844.50;;;1.88
69857;BMP280;57147;53.582;10.112;2022-12-07T02:42:22;100858.16;;;1.90
69857;BMP280;57147;53.582;10.112;2022-12-07T02:47:28;100855.50;;;1.78
69857;BMP280;57147;53.582;10.112;2022-12-07T02:52:29;100861.72;;;1.95
69857;BMP280;57147;53.582;10.112;2022-12-07T02:57:41;100849.38;;;1.72
69857;BMP280;57147;53.582;10.112;2022-12-07T03:02:53;100874.97;;;1.70
69857;BMP280;57147;53.582;10.112;2022-12-07T03:08:00;100875.50;;;1.61
69857;BMP280;57147;53.582;10.112;2022-12-07T03:13:07;100869.97;;;1.50
69857;BMP280;57147;53.582;10.112;2022-12-07T03:18:14;100874.25;;;1.45
69857;BMP280;57147;53.582;10.112;2022-12-07T03:23:18;100848.19;;;1.27
69857;BMP280;57147;53.582;10.112;2022-12-07T03:28:20;100864.22;;;1.30
69857;BMP280;57147;53.582;10.112;2022-12-07T03:33:28;100857.84;;;1.26
69857;BMP280;57147;53.582;10.112;2022-12-07T03:38:33;100860.31;;;1.21
69857;BMP280;57147;53.582;10.112;2022-12-07T03:43:35;100843.41;;;1.05
69857;BMP280;57147;53.582;10.112;2022-12-07T03:48:43;100871.50;;;1.10
69857;BMP280;57147;53.582;10.112;2022-12-07T03:53:50;100876.38;;;1.06
69857;BMP280;57147;53.582;10.112;2022-12-07T03:58:53;100870.28;;;0.94
69857;BMP280;57147;53.582;10.112;2022-12-07T04:03:57;100864.25;;;0.94
69857;BMP280;57147;53.582;10.112;2022-12-07T04:08:57;100878.97;;;0.88
69857;BMP280;57147;53.582;10.112;2022-12-07T04:13:58;100869.97;;;0.84
69857;BMP280;57147;53.582;10.112;2022-12-07T04:19:01;100866.47;;;0.72
69857;BMP280;57147;53.582;10.112;2022-12-07T04:24:02;100867.25;;;0.72
69857;BMP280;57147;53.582;10.112;2022-12-07T04:29:03;100863.25;;;0.70
69857;BMP280;57147;53.582;10.112;2022-12-07T04:34:06;100874.38;;;0.65
69857;BMP280;57147;53.582;10.112;2022-12-07T04:39:08;100875.44;;;0.58
69857;BMP280;57147;53.582;10.112;2022-12-07T04:44:15;100878.06;;;0.58
69857;BMP280;57147;53.582;10.112;2022-12-07T04:49:19;100887.13;;;0.55
69857;BMP280;57147;53.582;10.112;2022-12-07T04:54:20;100880.31;;;0.54
69857;BMP280;57147;53.582;10.112;2022-12-07T04:59:21;100879.16;;;0.50
69857;BMP280;57147;53.582;10.112;2022-12-07T05:04:24;100875.75;;;0.50
69857;BMP280;57147;53.582;10.112;2022-12-07T05:09:25;100846.59;;;0.28
69857;BMP280;57147;53.582;10.112;2022-12-07T05:14:25;100873.13;;;0.50
69857;BMP280;57147;53.582;10.112;2022-12-07T05:19:29;100858.16;;;0.38
69857;BMP280;57147;53.582;10.112;2022-12-07T05:24:29;100874.56;;;0.45
69857;BMP280;57147;53.582;10.112;2022-12-07T05:29:30;100872.81;;;0.39
69857;BMP280;57147;53.582;10.112;2022-12-07T05:34:33;100872.38;;;0.42
69857;BMP280;57147;53.582;10.112;2022-12-07T05:39:34;100874.41;;;0.40
69857;BMP280;57147;53.582;10.112;2022-12-07T05:44:34;100877.47;;;0.56
69857;BMP280;57147;53.582;10.112;2022-12-07T05:49:38;100879.44;;;0.60
69857;BMP280;57147;53.582;10.112;2022-12-07T05:54:38;100875.09;;;0.54
69857;BMP280;57147;53.582;10.112;2022-12-07T05:59:39;100875.44;;;0.58
69857;BMP280;57147;53.582;10.112;2022-12-07T06:04:44;100874.16;;;0.49
69857;BMP280;57147;53.582;10.112;2022-12-07T06:09:44;100875.00;;;0.42
69857;BMP280;57147;53.582;10.112;2022-12-07T06:14:45;100874.41;;;0.40
69857;BMP280;57147;53.582;10.112;2022-12-07T06:19:49;100846.78;;;0.26
69857;BMP280;57147;53.582;10.112;2022-12-07T06:24:49;100873.13;;;0.50
69857;BMP280;57147;53.582;10.112;2022-12-07T06:29:50;100854.25;;;0.47
69857;BMP280;57147;53.582;10.112;2022-12-07T06:34:53;100884.69;;;0.60
69857;BMP280;57147;53.582;10.112;2022-12-07T06:39:54;100869.22;;;0.59
69857;BMP280;57147;53.582;10.112;2022-12-07T06:44:54;100838.28;;;0.37
69857;BMP280;57147;53.582;10.112;2022-12-07T06:49:57;100880.09;;;0.74
69857;BMP280;57147;53.582;10.112;2022-12-07T06:54:58;100882.81;;;0.86
69857;BMP280;57147;53.582;10.112;2022-12-07T06:59:58;100881.38;;;0.90
69857;BMP280;57147;53.582;10.112;2022-12-07T07:05:02;100885.97;;;0.94
69857;BMP280;57147;53.582;10.112;2022-12-07T07:10:04;100884.66;;;1.03
69857;BMP280;57147;53.582;10.112;2022-12-07T07:15:05;100887.44;;;1.08
69857;BMP280;57147;53.582;10.112;2022-12-07T07:20:10;100882.19;;;1.08
69857;BMP280;57147;53.582;10.112;2022-12-07T07:25:11;100889.72;;;1.17
69857;BMP280;57147;53.582;10.112;2022-12-07T07:30:12;100882.91;;;1.15
69857;BMP280;57147;53.582;10.112;2022-12-07T07:35:15;100888.72;;;1.18
69857;BMP280;57147;53.582;10.112;2022-12-07T07:40:16;100901.19;;;1.15
69857;BMP280;57147;53.582;10.112;2022-12-07T07:45:17;100893.78;;;1.12
69857;BMP280;57147;53.582;10.112;2022-12-07T07:50:21;100907.03;;;1.18
69857;BMP280;57147;53.582;10.112;2022-12-07T07:55:22;100907.16;;;1.23
69857;BMP280;57147;53.582;10.112;2022-12-07T08:00:23;100918.66;;;1.22
69857;BMP280;57147;53.582;10.112;2022-12-07T08:05:26;100908.06;;;1.35
69857;BMP280;57147;53.582;10.112;2022-12-07T08:10:27;100922.63;;;1.42
69857;BMP280;57147;53.582;10.112;2022-12-07T08:15:28;100914.78;;;1.42
69857;BMP280;57147;53.582;10.112;2022-12-07T08:20:33;100928.06;;;1.41
69857;BMP280;57147;53.582;10.112;2022-12-07T08:25:34;100894.31;;;1.39
69857;BMP280;57147;53.582;10.112;2022-12-07T08:30:35;100922.22;;;1.57
69857;BMP280;57147;53.582;10.112;2022-12-07T08:35:38;100920.84;;;1.73
69857;BMP280;57147;53.582;10.112;2022-12-07T08:40:39;100921.66;;;1.85
69857;BMP280;57147;53.582;10.112;2022-12-07T08:45:40;100927.03;;;1.90
69857;BMP280;57147;53.582;10.112;2022-12-07T08:50:44;100925.50;;;2.12
69857;BMP280;57147;53.582;10.112;2022-12-07T08:55:45;100932.78;;;2.10
69857;BMP280;57147;53.582;10.112;2022-12-07T09:00:46;100932.94;;;2.27
69857;BMP280;57147;53.582;10.112;2022-12-07T09:05:49;100937.50;;;2.43
69857;BMP280;57147;53.582;10.112;2022-12-07T09:10:50;100940.13;;;2.43
69857;BMP280;57147;53.582;10.112;2022-12-07T09:15:51;100950.59;;;2.55
69857;BMP280;57147;53.582;10.112;2022-12-07T09:20:54;100946.28;;;2.61
69857;BMP280;57147;53.582;10.112;2022-12-07T09:25:59;100945.97;;;2.69
69857;BMP280;57147;53.582;10.112;2022-12-07T09:30:59;100946.41;;;2.89
69857;BMP280;57147;53.582;10.112;2022-12-07T09:36:03;100939.66;;;3.05
69857;BMP280;57147;53.582;10.112;2022-12-07T09:41:06;100943.59;;;3.31
69857;BMP280;57147;53.582;10.112;2022-12-07T09:46:09;100947.69;;;3.27
69857;BMP280;57147;53.582;10.112;2022-12-07T09:51:18;100952.69;;;3.40
69857;BMP280;57147;53.582;10.112;2022-12-07T09:56:20;100950.94;;;3.05
69857;BMP280;57147;53.582;10.112;2022-12-07T10:01:21;100948.03;;;3.30
69857;BMP280;57147;53.582;10.112;2022-12-07T10:06:24;100937.94;;;3.10
69857;BMP280;57147;53.582;10.112;2022-12-07T10:11:25;100938.53;;;3.41
69857;BMP280;57147;53.582;10.112;2022-12-07T10:16:38;100943.44;;;3.37
69857;BMP280;57147;53.582;10.112;2022-12-07T10:21:59;100942.25;;;3.16
69857;BMP280;57147;53.582;10.112;2022-12-07T10:27:00;100941.06;;;3.36
69857;BMP280;57147;53.582;10.112;2022-12-07T10:32:03;100910.81;;;3.05
69857;BMP280;57147;53.582;10.112;2022-12-07T10:37:16;100910.84;;;2.93
69857;BMP280;57147;53.582;10.112;2022-12-07T10:42:19;100942.91;;;3.23
69857;BMP280;57147;53.582;10.112;2022-12-07T10:47:33;100946.56;;;3.22
69857;BMP280;57147;53.582;10.112;2022-12-07T10:58:47;100940.50;;;3.22
69857;BMP280;57147;53.582;10.112;2022-12-07T11:04:04;100924.31;;;3.25
69857;BMP280;57147;53.582;10.112;2022-12-07T11:09:30;100917.44;;;3.36
69857;BMP280;57147;53.582;10.112;2022-12-07T11:14:40;100922.59;;;3.31
69857;BMP280;57147;53.582;10.112;2022-12-07T11:19:52;100910.03;;;3.33
69857;BMP280;57147;53.582;10.112;2022-12-07T11:25:01;100897.56;;;3.11
69857;BMP280;57147;53.582;10.112;2022-12-07T11:30:18;100889.22;;;3.14
69857;BMP280;57147;53.582;10.112;2022-12-07T11:35:29;100909.03;;;3.22
69857;BMP280;57147;53.582;10.112;2022-12-07T11:40:33;100882.00;;;3.21
69857;BMP280;57147;53.582;10.112;2022-12-07T11:45:42;100889.50;;;3.30
69857;BMP280;57147;53.582;10.112;2022-12-07T11:50:46;100905.19;;;3.41
69857;BMP280;57147;53.582;10.112;2022-12-07T11:55:49;100896.72;;;3.22
69857;BMP280;57147;53.582;10.112;2022-12-07T12:01:00;100890.16;;;3.37
69857;BMP280;57147;53.582;10.112;2022-12-07T12:06:03;100891.47;;;3.51
69857;BMP280;57147;53.582;10.112;2022-12-07T12:11:13;100900.19;;;3.40
69857;BMP280;57147;53.582;10.112;2022-12-07T12:16:45;100896.91;;;3.33
69857;BMP280;57147;53.582;10.112;2022-12-07T12:21:54;100889.28;;;3.19
69857;BMP280;57147;53.582;10.112;2022-12-07T12:26:59;100892.47;;;3.21
69857;BMP280;57147;53.582;10.112;2022-12-07T12:32:13;100874.84;;;3.17
69857;BMP280;57147;53.582;10.112;2022-12-07T12:37:39;100893.09;;;3.40
69857;BMP280;57147;53.582;10.112;2022-12-07T12:42:44;100868.84;;;3.33
69857;BMP280;57147;53.582;10.112;2022-12-07T12:48:09;100889.44;;;3.53
69857;BMP280;57147;53.582;10.112;2022-12-07T12:53:27;100893.25;;;3.34
69857;BMP280;57147;53.582;10.112;2022-12-07T12:58:34;100896.88;;;3.44
69857;BMP280;57147;53.582;10.112;2022-12-07T13:03:37;100888.84;;;3.51
69857;BMP280;57147;53.582;10.112;2022-12-07T13:08:40;100902.63;;;3.58
69857;BMP280;57147;53.582;10.112;2022-12-07T13:13:42;100889.50;;;3.58
69857;BMP280;57147;53.582;10.112;2022-12-07T13:18:45;100889.66;;;3.51
69857;BMP280;57147;53.582;10.112;2022-12-07T13:23:54;100894.47;;;3.43
69857;BMP280;57147;53.582;10.112;2022-12-07T13:29:09;100894.94;;;3.40
69857;BMP280;57147;53.582;10.112;2022-12-07T13:34:38;100895.84;;;3.45
69857;BMP280;57147;53.582;10.112;2022-12-07T13:39:45;100882.00;;;3.50
69857;BMP280;57147;53.582;10.112;2022-12-07T13:44:47;100896.53;;;3.41
69857;BMP280;57147;53.582;10.112;2022-12-07T13:49:52;100904.31;;;3.36
69857;BMP280;57147;53.582;10.112;2022-12-07T13:54:57;100902.41;;;3.31
69857;BMP280;57147;53.582;10.112;2022-12-07T13:59:58;100894.84;;;3.06
69857;BMP280;57147;53.582;10.112;2022-12-07T14:05:10;100920.97;;;3.13
69857;BMP280;57147;53.582;10.112;2022-12-07T14:10:23;100917.41;;;3.07
69857;BMP280;57147;53.582;10.112;2022-12-07T14:15:28;100902.25;;;2.98
69857;BMP280;57147;53.582;10.112;2022-12-07T14:20:34;100901.94;;;2.94
69857;BMP280;57147;53.582;10.112;2022-12-07T14:25:45;100897.38;;;2.78
69857;BMP280;57147;53.582;10.112;2022-12-07T14:30:46;100904.91;;;2.86
69857;BMP280;57147;53.582;10.112;2022-12-07T14:35:50;100894.88;;;2.60
69857;BMP280;57147;53.582;10.112;2022-12-07T14:40:51;100902.75;;;2.48
69857;BMP280;57147;53.582;10.112;2022-12-07T14:45:52;100912.19;;;2.37
69857;BMP280;57147;53.582;10.112;2022-12-07T14:50:55;100908.19;;;2.35
69857;BMP280;57147;53.582;10.112;2022-12-07T14:55:56;100883.47;;;2.07
69857;BMP280;57147;53.582;10.112;2022-12-07T15:00:57;100906.94;;;2.14
69857;BMP280;57147;53.582;10.112;2022-12-07T15:06:00;100874.72;;;2.02
69857;BMP280;57147;53.582;10.112;2022-12-07T15:11:01;100903.75;;;2.12
69857;BMP280;57147;53.582;10.112;2022-12-07T15:16:02;100915.31;;;1.93
69857;BMP280;57147;53.582;10.112;2022-12-07T15:21:10;100909.81;;;1.82
69857;BMP280;57147;53.582;10.112;2022-12-07T15:26:12;100890.25;;;1.55
69857;BMP280;57147;53.582;10.112;2022-12-07T15:31:14;100844.97;;;1.25
69857;BMP280;57147;53.582;10.112;2022-12-07T15:36:19;100911.25;;;1.67
69857;BMP280;57147;53.582;10.112;2022-12-07T15:41:20;100883.28;;;1.49
69857;BMP280;57147;53.582;10.112;2022-12-07T15:46:22;100865.41;;;1.34
69857;BMP280;57147;53.582;10.112;2022-12-07T15:51:26;100880.72;;;1.31
69857;BMP280;57147;53.582;10.112;2022-12-07T15:56:27;100811.78;;;0.70
69857;BMP280;57147;53.582;10.112;2022-12-07T16:01:27;100879.72;;;1.13
69857;BMP280;57147;53.582;10.112;2022-12-07T16:06:31;100907.38;;;1.21
69857;BMP280;57147;53.582;10.112;2022-12-07T16:11:32;100838.22;;;0.80
69857;BMP280;57147;53.582;10.112;2022-12-07T16:16:33;100865.63;;;0.96
69857;BMP280;57147;53.582;10.112;2022-12-07T16:21:36;100842.97;;;0.90
69857;BMP280;57147;53.582;10.112;2022-12-07T16:26:38;100882.47;;;1.19
69857;BMP280;57147;53.582;10.112;2022-12-07T16:31:39;100880.88;;;1.18
69857;BMP280;57147;53.582;10.112;2022-12-07T16:36:42;100886.53;;;1.14
69857;BMP280;57147;53.582;10.112;2022-12-07T16:41:43;100869.84;;;0.97
69857;BMP280;57147;53.582;10.112;2022-12-07T16:46:44;100873.16;;;0.86
69857;BMP280;57147;53.582;10.112;2022-12-07T16:51:49;100881.16;;;0.91
69857;BMP280;57147;53.582;10.112;2022-12-07T16:56:49;100877.97;;;0.89
69857;BMP280;57147;53.582;10.112;2022-12-07T17:01:50;100887.56;;;0.95
69857;BMP280;57147;53.582;10.112;2022-12-07T17:06:53;100860.22;;;0.73
69857;BMP280;57147;53.582;10.112;2022-12-07T17:11:55;100871.88;;;0.95
69857;BMP280;57147;53.582;10.112;2022-12-07T17:16:56;100874.84;;;0.99
69857;BMP280;57147;53.582;10.112;2022-12-07T17:21:59;100873.78;;;1.06
69857;BMP280;57147;53.582;10.112;2022-12-07T17:27:00;100825.69;;;0.89
69857;BMP280;57147;53.582;10.112;2022-12-07T17:32:00;100870.16;;;1.07
69857;BMP280;57147;53.582;10.112;2022-12-07T17:37:04;100868.13;;;1.09
69857;BMP280;57147;53.582;10.112;2022-12-07T17:42:05;100856.78;;;0.97
69857;BMP280;57147;53.582;10.112;2022-12-07T17:47:06;100865.78;;;1.01
69857;BMP280;57147;53.582;10.112;2022-12-07T17:52:09;100837.75;;;0.90
69857;BMP280;57147;53.582;10.112;2022-12-07T17:57:10;100821.75;;;0.80
69857;BMP280;57147;53.582;10.112;2022-12-07T18:02:10;100848.34;;;0.95
69857;BMP280;57147;53.582;10.112;2022-12-07T18:07:13;100812.31;;;0.79
69857;BMP280;57147;53.582;10.112;2022-12-07T18:12:14;100822.34;;;0.82
69857;BMP280;57147;53.582;10.112;2022-12-07T18:17:16;100837.66;;;0.97
69857;BMP280;57147;53.582;10.112;2022-12-07T18:22:19;100822.06;;;0.90
69857;BMP280;57147;53.582;10.112;2022-12-07T18:27:20;100836.59;;;1.04
69857;BMP280;57147;53.582;10.112;2022-12-07T18:32:21;100821.31;;;0.83
69857;BMP280;57147;53.582;10.112;2022-12-07T18:37:24;100773.06;;;0.49
69857;BMP280;57147;53.582;10.112;2022-12-07T18:42:24;100827.56;;;0.64
69857;BMP280;57147;53.582;10.112;2022-12-07T18:47:25;100819.72;;;0.45
69857;BMP280;57147;53.582;10.112;2022-12-07T18:52:28;100779.38;;;0.17
69857;BMP280;57147;53.582;10.112;2022-12-07T18:57:31;100811.88;;;0.21
69857;BMP280;57147;53.582;10.112;2022-12-07T19:02:31;100804.28;;;0.19
69857;BMP280;57147;53.582;10.112;2022-12-07T19:07:35;100790.28;;;0.13
69857;BMP280;57147;53.582;10.112;2022-12-07T19:12:35;100801.44;;;0.21
69857;BMP280;57147;53.582;10.112;2022-12-07T19:17:36;100802.88;;;-0.08
69857;BMP280;57147;53.582;10.112;2022-12-07T19:22:39;100797.94;;;0.08
69857;BMP280;57147;53.582;10.112;2022-12-07T19:27:40;100791.50;;;0.11
69857;BMP280;57147;53.582;10.112;2022-12-07T19:32:41;100793.97;;;0.06
69857;BMP280;57147;53.582;10.112;2022-12-07T19:37:44;100798.63;;;0.22
69857;BMP280;57147;53.582;10.112;2022-12-07T19:42:44;100797.34;;;0.31
69857;BMP280;57147;53.582;10.112;2022-12-07T19:47:45;100785.28;;;0.30
69857;BMP280;57147;53.582;10.112;2022-12-07T19:52:48;100764.09;;;0.20
69857;BMP280;57147;53.582;10.112;2022-12-07T19:57:49;100776.72;;;0.23
69857;BMP280;57147;53.582;10.112;2022-12-07T20:02:50;100782.09;;;0.28
69857;BMP280;57147;53.582;10.112;2022-12-07T20:07:53;100771.22;;;0.31
69857;BMP280;57147;53.582;10.112;2022-12-07T20:12:54;100766.88;;;0.25
69857;BMP280;57147;53.582;10.112;2022-12-07T20:17:54;100755.50;;;-0.05
69857;BMP280;57147;53.582;10.112;2022-12-07T20:22:57;100753.72;;;-0.11
69857;BMP280;57147;53.582;10.112;2022-12-07T20:27:58;100717.94;;;-0.29
69857;BMP280;57147;53.582;10.112;2022-12-07T20:33:00;100730.00;;;0.15
69857;BMP280;57147;53.582;10.112;2022-12-07T20:38:03;100715.81;;;0.11
69857;BMP280;57147;53.582;10.112;2022-12-07T20:43:04;100703.97;;;0.08
69857;BMP280;57147;53.582;10.112;2022-12-07T20:48:05;100728.16;;;0.40
69857;BMP280;57147;53.582;10.112;2022-12-07T20:53:08;100700.88;;;0.36
69857;BMP280;57147;53.582;10.112;2022-12-07T20:58:10;100708.97;;;0.65
69857;BMP280;57147;53.582;10.112;2022-12-07T21:03:11;100686.50;;;0.75
69857;BMP280;57147;53.582;10.112;2022-12-07T21:08:14;100710.75;;;1.12
69857;BMP280;57147;53.582;10.112;2022-12-07T21:13:14;100687.72;;;0.91
69857;BMP280;57147;53.582;10.112;2022-12-07T21:18:15;100693.97;;;0.90
69857;BMP280;57147;53.582;10.112;2022-12-07T21:23:18;100697.81;;;0.88
69857;BMP280;57147;53.582;10.112;2022-12-07T21:28:19;100693.13;;;0.78
69857;BMP280;57147;53.582;10.112;2022-12-07T21:33:20;100690.13;;;0.63
69857;BMP280;57147;53.582;10.112;2022-12-07T21:38:24;100622.53;;;0.36
69857;BMP280;57147;53.582;10.112;2022-12-07T21:43:24;100675.81;;;0.95
69857;BMP280;57147;53.582;10.112;2022-12-07T21:48:25;100672.31;;;1.01
69857;BMP280;57147;53.582;10.112;2022-12-07T21:53:28;100632.69;;;0.44
69857;BMP280;57147;53.582;10.112;2022-12-07T21:58:29;100642.91;;;0.46
69857;BMP280;57147;53.582;10.112;2022-12-07T22:03:30;100648.06;;;0.53
69857;BMP280;57147;53.582;10.112;2022-12-07T22:08:33;100629.78;;;0.53
69857;BMP280;57147;53.582;10.112;2022-12-07T22:13:35;100623.25;;;0.43
69857;BMP280;57147;53.582;10.112;2022-12-07T22:18:36;100627.97;;;0.53
69857;BMP280;57147;53.582;10.112;2022-12-07T22:23:39;100621.78;;;0.47
69857;BMP280;57147;53.582;10.112;2022-12-07T22:28:41;100554.25;;;0.03
69857;BMP280;57147;53.582;10.112;2022-12-07T22:33:42;100601.28;;;0.63
69857;BMP280;57147;53.582;10.112;2022-12-07T22:38:46;100588.13;;;0.39
69857;BMP280;57147;53.582;10.112;2022-12-07T22:43:46;100569.28;;;0.37
69857;BMP280;57147;53.582;10.112;2022-12-07T22:48:47;100569.63;;;0.41
69857;BMP280;57147;53.582;10.112;2022-12-07T22:53:51;100548.88;;;0.46
69857;BMP280;57147;53.582;10.112;2022-12-07T22:58:51;100554.66;;;0.18
69857;BMP280;57147;53.582;10.112;2022-12-07T23:03:52;100538.75;;;-0.10
69857;BMP280;57147;53.582;10.112;2022-12-07T23:08:56;100532.44;;;-0.21
69857;BMP280;57147;53.582;10.112;2022-12-07T23:13:57;100517.28;;;-0.31
69857;BMP280;57147;53.582;10.112;2022-12-07T23:19:01;100495.72;;;-0.38
69857;BMP280;57147;53.582;10.112;2022-12-07T23:24:05;100488.81;;;-0.32
69857;BMP280;57147;53.582;10.112;2022-12-07T23:29:06;100490.31;;;-0.25
69857;BMP280;57147;53.582;10.112;2022-12-07T23:34:06;100481.91;;;-0.27
69857;BMP280;57147;53.582;10.112;2022-12-07T23:39:11;100473.50;;;-0.29
69857;BMP280;57147;53.582;10.112;2022-12-07T23:44:12;100458.03;;;-0.42
69857;BMP280;57147;53.582;10.112;2022-12-07T23:49:13;100437.19;;;-0.42
69857;BMP280;57147;53.582;10.112;2022-12-07T23:54:16;100429.44;;;-0.48
69857;BMP280;57147;53.582;10.112;2022-12-07T23:59:17;100427.03;;;-0.50
